Lockland, Ohio
Current Conditions -  °F | °C
As of 6:53 PM on Wednesday 28 Jan 2015 (Local Time) from KHAO Reporting Station
Clear Clear  
Wind Chill: 32°   Ceiling: Unl
Heat Index: 32°   Visibility: 10mi
Dew Point: 20°   Wind: 3mph
Humidity: 61%   Direction: NA
Pressure: 30.25"   Gusts: NA
Location:  39.236°N, 84.4599°W
Report Text: KHAO 282353Z AUTO VRB03KT 10SM CLR 00/M07 A3025 RMK AO2 SLP254 T00001067 10028 21011 58007
Loading
Personal Weather Stations






























Interactive Weather Map New forecast layout! Learn more

10-Day Weather Forecast

Advertisements
Track Severe Weather on mobile